Time;durP1;ratioP1;P1;durP2;ratioP2;P2;SDS_P1;SDS_P2;PMS_P1;PMS_P2;Temp;Humidity;BMP_temperature;BMP_pressure;BME280_temperature;BME280_humidity;BME280_pressure;Samples;Min_cycle;Max_cycle;Signal;HPM_P1;HPM_P2
2024/01/17 00:02:25;;;;;;;;;;;1.50;87.50;;;;;;5008275;28;87347;-46
2024/01/17 00:04:52;;;;;;;;;;;1.50;87.50;;;;;;5009074;28;86987;-47
2024/01/17 00:07:18;;;;;;;;;;;1.50;87.50;;;;;;5007891;28;87208;-48
2024/01/17 00:09:44;;;;;;;;;;;1.50;87.40;;;;;;5004978;28;87904;-47
2024/01/17 00:12:09;;;;;;;;;;;1.50;87.40;;;;;;5006503;28;86998;-48
2024/01/17 00:14:35;;;;;;;;;;;1.50;87.50;;;;;;5008187;28;86926;-46
2024/01/17 00:17:00;;;;;;;;;;;1.40;87.50;;;;;;5011197;28;86309;-47
2024/01/17 00:19:26;;;;;;;;;;;1.50;87.40;;;;;;5008637;28;87123;-46
2024/01/17 00:21:51;;;;;;;;;;;1.40;87.50;;;;;;5007775;28;87337;-47
2024/01/17 00:24:17;;;;;;;;;;;1.40;87.50;;;;;;5007753;28;88059;-47
2024/01/17 00:26:42;;;;;;;;;;;1.40;87.50;;;;;;5008265;28;87632;-47
2024/01/17 00:29:08;;;;;;;;;;;1.40;87.40;;;;;;5007051;28;87409;-46
2024/01/17 00:31:34;;;;;;;;;;;1.40;87.30;;;;;;5008080;28;87334;-46
2024/01/17 00:34:00;;;;;;;;;;;1.40;87.40;;;;;;5007905;28;88102;-46
2024/01/17 00:36:25;;;;;;;;;;;1.40;87.40;;;;;;5008278;28;87386;-48
2024/01/17 00:38:51;;;;;;;;;;;1.40;87.40;;;;;;5011534;28;87025;-48
2024/01/17 00:41:17;;;;;;;;;;;1.40;87.50;;;;;;5007955;28;86526;-46
2024/01/17 00:43:42;;;;;;;;;;;1.30;87.60;;;;;;5008308;28;86986;-47
2024/01/17 00:46:08;;;;;;;;;;;1.30;87.50;;;;;;5008442;28;87407;-46
2024/01/17 00:48:33;;;;;;;;;;;1.40;87.60;;;;;;5007310;28;88391;-47
2024/01/17 00:50:59;;;;;;;;;;;1.40;87.40;;;;;;5007405;28;87030;-46
2024/01/17 00:53:24;;;;;;;;;;;1.40;87.30;;;;;;5007108;28;88421;-47
2024/01/17 00:55:50;;;;;;;;;;;1.40;87.30;;;;;;5006992;28;88492;-46
2024/01/17 00:58:18;;;;;;;;;;;1.30;87.30;;;;;;5003862;28;87044;-46
2024/01/17 01:00:43;;;;;;;;;;;1.30;87.30;;;;;;5010650;28;86969;-46
2024/01/17 01:03:09;;;;;;;;;;;1.30;87.20;;;;;;5007806;28;87076;-47
2024/01/17 01:05:34;;;;;;;;;;;1.40;87.20;;;;;;5005823;28;88333;-45
2024/01/17 01:08:00;;;;;;;;;;;1.30;87.10;;;;;;5006318;28;87445;-47
2024/01/17 01:10:25;;;;;;;;;;;1.30;87.20;;;;;;5008069;28;86958;-46
2024/01/17 01:12:51;;;;;;;;;;;1.30;87.20;;;;;;5006763;28;88298;-48
2024/01/17 01:15:16;;;;;;;;;;;1.30;87.10;;;;;;5007220;28;87306;-46
2024/01/17 01:17:42;;;;;;;;;;;1.30;87.20;;;;;;5007032;28;87065;-49
2024/01/17 01:20:08;;;;;;;;;;;1.30;87.20;;;;;;5007211;28;86876;-46
2024/01/17 01:22:34;;;;;;;;;;;1.30;87.30;;;;;;5010432;28;87672;-48
2024/01/17 01:24:59;;;;;;;;;;;1.30;87.20;;;;;;5007826;28;86896;-46
2024/01/17 01:27:25;;;;;;;;;;;1.30;87.20;;;;;;5006830;28;87524;-47
2024/01/17 01:29:50;;;;;;;;;;;1.30;87.20;;;;;;5006081;28;86679;-47
2024/01/17 01:32:16;;;;;;;;;;;1.30;87.20;;;;;;5007260;28;86981;-47
2024/01/17 01:34:41;;;;;;;;;;;1.30;87.10;;;;;;5006810;28;87782;-46
2024/01/17 01:37:07;;;;;;;;;;;1.30;87.20;;;;;;5006783;28;88134;-46
2024/01/17 01:39:32;;;;;;;;;;;1.20;87.30;;;;;;5003814;28;87755;-50
2024/01/17 01:41:58;;;;;;;;;;;1.20;87.60;;;;;;5008381;28;86880;-47
2024/01/17 01:44:23;;;;;;;;;;;1.10;87.60;;;;;;5006032;28;87856;-46
2024/01/17 01:46:49;;;;;;;;;;;1.20;87.60;;;;;;5007415;28;87572;-47
2024/01/17 01:49:15;;;;;;;;;;;1.20;87.60;;;;;;5007482;28;86783;-47
2024/01/17 01:51:44;;;;;;;;;;;1.10;87.60;;;;;;5007403;28;87022;-47
2024/01/17 01:54:10;;;;;;;;;;;1.20;87.60;;;;;;5007068;28;87689;-47
2024/01/17 01:56:37;;;;;;;;;;;1.10;87.60;;;;;;5004965;28;87217;-48
2024/01/17 01:59:02;;;;;;;;;;;1.10;87.60;;;;;;5003536;28;86900;-47
2024/01/17 02:01:29;;;;;;;;;;;1.10;87.60;;;;;;5005730;28;88797;-47
2024/01/17 02:03:55;;;;;;;;;;;1.10;87.70;;;;;;5009406;28;87728;-46
2024/01/17 02:06:22;;;;;;;;;;;1.00;87.80;;;;;;5003411;28;87450;-46
2024/01/17 02:08:50;;;;;;;;;;;1.00;87.90;;;;;;5006714;28;87014;-47
2024/01/17 02:11:17;;;;;;;;;;;0.90;88.10;;;;;;5006964;28;88000;-47
2024/01/17 02:13:43;;;;;;;;;;;1.00;87.90;;;;;;5005274;28;87616;-47
2024/01/17 02:16:09;;;;;;;;;;;1.00;87.60;;;;;;5006914;28;86979;-47
2024/01/17 02:18:34;;;;;;;;;;;1.10;87.30;;;;;;5007630;28;86702;-46
2024/01/17 02:21:00;;;;;;;;;;;1.10;87.20;;;;;;5006471;28;87009;-47
2024/01/17 02:23:26;;;;;;;;;;;1.10;87.10;;;;;;5006903;28;87117;-46
2024/01/17 02:25:53;;;;;;;;;;;1.20;87.10;;;;;;5008411;28;88053;-46
2024/01/17 02:28:18;;;;;;;;;;;1.10;87.10;;;;;;5002084;28;88373;-46
2024/01/17 02:30:44;;;;;;;;;;;1.10;86.90;;;;;;5006094;28;87014;-47
2024/01/17 02:33:10;;;;;;;;;;;1.10;86.90;;;;;;5005644;28;88077;-48
2024/01/17 02:35:37;;;;;;;;;;;1.10;86.90;;;;;;5006829;28;87038;-47
2024/01/17 02:38:03;;;;;;;;;;;1.10;87.00;;;;;;5006961;28;87278;-48
2024/01/17 02:40:28;;;;;;;;;;;1.10;87.10;;;;;;5005905;28;87746;-48
2024/01/17 02:42:54;;;;;;;;;;;1.10;87.10;;;;;;5005944;28;86343;-46
2024/01/17 02:45:21;;;;;;;;;;;1.00;87.10;;;;;;5006791;28;86932;-47
2024/01/17 02:47:46;;;;;;;;;;;1.00;87.00;;;;;;5008852;28;88315;-48
2024/01/17 02:50:14;;;;;;;;;;;1.10;87.10;;;;;;5002240;28;87909;-47
2024/01/17 02:52:49;;;;;;;;;;;1.10;87.10;;;;;;5008136;28;88626;-47
2024/01/17 02:55:18;;;;;;;;;;;1.10;87.00;;;;;;5006088;28;86955;-46
2024/01/17 02:57:44;;;;;;;;;;;1.00;86.90;;;;;;5008410;28;87871;-48
2024/01/17 03:00:09;;;;;;;;;;;1.00;87.00;;;;;;5009087;28;87496;-48
2024/01/17 03:02:35;;;;;;;;;;;1.10;86.90;;;;;;5010159;28;87090;-47
2024/01/17 03:05:01;;;;;;;;;;;1.10;86.80;;;;;;5009977;28;86907;-46
2024/01/17 03:07:27;;;;;;;;;;;1.00;86.90;;;;;;5009415;28;87665;-46
2024/01/17 03:09:52;;;;;;;;;;;1.00;87.00;;;;;;5012333;28;87029;-47
2024/01/17 03:12:19;;;;;;;;;;;1.10;87.00;;;;;;5009442;28;87436;-47
2024/01/17 03:14:45;;;;;;;;;;;1.10;86.90;;;;;;5008062;28;87865;-48
2024/01/17 03:17:12;;;;;;;;;;;1.00;86.90;;;;;;5008061;28;87502;-47
2024/01/17 03:19:38;;;;;;;;;;;1.00;87.00;;;;;;5006815;28;88510;-47
2024/01/17 03:22:04;;;;;;;;;;;1.00;87.00;;;;;;5007510;28;87070;-46
2024/01/17 03:24:29;;;;;;;;;;;1.00;86.90;;;;;;5009654;28;86978;-46
2024/01/17 03:26:55;;;;;;;;;;;1.00;87.00;;;;;;5009291;28;87340;-46
2024/01/17 03:29:20;;;;;;;;;;;1.00;86.90;;;;;;5007493;28;86853;-47
2024/01/17 03:31:47;;;;;;;;;;;1.00;87.00;;;;;;5011529;28;86805;-47
2024/01/17 03:34:12;;;;;;;;;;;0.90;86.90;;;;;;5008407;28;87128;-46
2024/01/17 03:36:38;;;;;;;;;;;0.90;87.00;;;;;;5008721;28;87040;-46
2024/01/17 03:39:04;;;;;;;;;;;1.00;87.00;;;;;;5008241;28;88599;-47
2024/01/17 03:41:29;;;;;;;;;;;1.00;87.00;;;;;;5009201;28;87075;-46
2024/01/17 03:43:56;;;;;;;;;;;1.00;87.50;;;;;;5007320;28;87676;-47
2024/01/17 03:46:22;;;;;;;;;;;0.90;86.90;;;;;;5008089;28;87600;-47
2024/01/17 03:48:48;;;;;;;;;;;0.90;87.00;;;;;;5008917;28;86968;-46
2024/01/17 03:51:13;;;;;;;;;;;0.90;87.00;;;;;;5010137;28;88085;-47
2024/01/17 03:53:39;;;;;;;;;;;0.90;87.00;;;;;;5009144;28;86944;-46
2024/01/17 03:56:04;;;;;;;;;;;0.90;87.10;;;;;;5009652;28;86574;-46
2024/01/17 03:58:30;;;;;;;;;;;0.90;87.10;;;;;;5005569;28;87202;-45
2024/01/17 04:00:55;;;;;;;;;;;0.90;87.10;;;;;;5008226;28;86843;-46
2024/01/17 04:03:21;;;;;;;;;;;0.90;87.00;;;;;;5007650;28;87841;-48
2024/01/17 04:05:46;;;;;;;;;;;0.90;87.10;;;;;;5008402;28;88456;-48
2024/01/17 04:08:12;;;;;;;;;;;0.90;87.10;;;;;;5008283;28;86901;-46
2024/01/17 04:10:37;;;;;;;;;;;0.90;87.10;;;;;;5009092;28;86642;-47
2024/01/17 04:13:03;;;;;;;;;;;0.80;87.00;;;;;;5011288;28;87544;-47
2024/01/17 04:15:29;;;;;;;;;;;0.90;87.10;;;;;;5007425;28;86934;-47
2024/01/17 04:17:54;;;;;;;;;;;0.80;87.10;;;;;;5007053;28;88535;-46
2024/01/17 04:20:20;;;;;;;;;;;0.80;87.20;;;;;;5008421;28;86352;-46
2024/01/17 04:22:46;;;;;;;;;;;0.80;87.00;;;;;;5005123;28;86925;-47
2024/01/17 04:25:11;;;;;;;;;;;0.80;87.00;;;;;;5007362;28;87528;-49
2024/01/17 04:27:37;;;;;;;;;;;0.80;86.90;;;;;;5007159;28;88002;-48
2024/01/17 04:30:03;;;;;;;;;;;0.80;86.90;;;;;;5007947;28;87697;-46
2024/01/17 04:32:29;;;;;;;;;;;0.80;86.90;;;;;;5005324;28;87462;-47
2024/01/17 04:34:55;;;;;;;;;;;0.80;87.00;;;;;;5010563;28;86980;-47
2024/01/17 04:37:21;;;;;;;;;;;0.80;87.00;;;;;;5007083;28;87918;-46
2024/01/17 04:39:46;;;;;;;;;;;0.80;87.00;;;;;;5007824;28;87122;-47
2024/01/17 04:42:12;;;;;;;;;;;0.80;86.90;;;;;;5007548;28;86939;-46
2024/01/17 04:44:39;;;;;;;;;;;0.80;87.00;;;;;;5007698;28;87734;-46
2024/01/17 04:47:04;;;;;;;;;;;0.80;87.00;;;;;;5008076;28;87075;-46
2024/01/17 04:49:30;;;;;;;;;;;0.70;86.80;;;;;;5006528;28;86988;-46
2024/01/17 04:51:56;;;;;;;;;;;0.70;87.00;;;;;;5006709;28;88657;-47
2024/01/17 04:54:22;;;;;;;;;;;0.70;87.00;;;;;;5008103;28;86901;-48
2024/01/17 04:56:48;;;;;;;;;;;0.70;87.00;;;;;;5010039;28;86979;-46
2024/01/17 04:59:13;;;;;;;;;;;0.70;87.00;;;;;;5003931;28;86985;-47
2024/01/17 05:01:39;;;;;;;;;;;0.70;87.00;;;;;;5008245;28;86943;-46
2024/01/17 05:04:05;;;;;;;;;;;0.70;87.10;;;;;;5007349;28;87474;-46
2024/01/17 05:06:32;;;;;;;;;;;0.70;87.20;;;;;;5008075;28;87172;-47
2024/01/17 05:08:58;;;;;;;;;;;0.70;87.20;;;;;;5007843;28;87874;-46
2024/01/17 05:11:24;;;;;;;;;;;0.70;87.10;;;;;;5006910;28;88402;-47
2024/01/17 05:13:50;;;;;;;;;;;0.70;87.20;;;;;;5005651;28;87035;-46
2024/01/17 05:16:15;;;;;;;;;;;0.70;87.20;;;;;;5004051;28;88071;-47
2024/01/17 05:18:41;;;;;;;;;;;0.70;87.30;;;;;;5003729;28;87590;-46
2024/01/17 05:21:07;;;;;;;;;;;0.60;87.30;;;;;;5007549;28;87061;-46
2024/01/17 05:23:32;;;;;;;;;;;0.70;87.40;;;;;;5007560;28;87522;-46
2024/01/17 05:25:58;;;;;;;;;;;0.70;87.30;;;;;;5006977;28;87128;-46
2024/01/17 05:28:23;;;;;;;;;;;0.60;87.30;;;;;;5005438;28;86860;-48
2024/01/17 05:30:49;;;;;;;;;;;0.60;87.20;;;;;;5005971;28;88620;-46
2024/01/17 05:33:15;;;;;;;;;;;0.60;87.30;;;;;;5008251;28;86316;-46
2024/01/17 05:35:40;;;;;;;;;;;0.60;87.30;;;;;;5007506;28;87460;-46
2024/01/17 05:38:06;;;;;;;;;;;0.60;87.30;;;;;;5007270;28;87428;-46
2024/01/17 05:40:31;;;;;;;;;;;0.60;87.30;;;;;;5009792;28;87861;-47
2024/01/17 05:42:57;;;;;;;;;;;0.60;87.40;;;;;;5006947;28;88524;-46
2024/01/17 05:45:23;;;;;;;;;;;0.60;87.30;;;;;;5006475;28;87022;-46
2024/01/17 05:47:48;;;;;;;;;;;0.60;87.40;;;;;;5007574;28;87300;-46
2024/01/17 05:50:14;;;;;;;;;;;0.60;87.30;;;;;;5007025;28;87505;-46
2024/01/17 05:52:48;;;;;;;;;;;0.60;87.30;;;;;;5007434;28;87041;-47
2024/01/17 05:55:15;;;;;;;;;;;0.60;87.40;;;;;;5007022;28;87993;-46
2024/01/17 05:57:41;;;;;;;;;;;0.50;87.30;;;;;;5006521;28;86694;-47
2024/01/17 06:00:09;;;;;;;;;;;0.60;87.40;;;;;;5005683;28;87201;-48
2024/01/17 06:02:35;;;;;;;;;;;0.60;87.40;;;;;;5003487;28;88014;-47
2024/01/17 06:05:02;;;;;;;;;;;0.60;87.40;;;;;;5006164;28;87927;-46
2024/01/17 06:07:27;;;;;;;;;;;0.50;87.50;;;;;;5006970;28;87669;-46
2024/01/17 06:09:53;;;;;;;;;;;0.50;87.40;;;;;;5004477;28;87665;-47
2024/01/17 06:12:19;;;;;;;;;;;0.50;87.50;;;;;;5004355;28;86910;-46
2024/01/17 06:14:45;;;;;;;;;;;0.50;87.50;;;;;;5005803;28;88386;-47
2024/01/17 06:17:11;;;;;;;;;;;0.50;87.50;;;;;;5004104;28;87221;-48
2024/01/17 06:19:37;;;;;;;;;;;0.50;87.50;;;;;;5006571;28;87012;-47
2024/01/17 06:22:02;;;;;;;;;;;0.50;87.50;;;;;;5009816;28;86735;-46
2024/01/17 06:24:28;;;;;;;;;;;0.50;87.50;;;;;;5006276;28;87152;-46
2024/01/17 06:26:53;;;;;;;;;;;0.50;87.50;;;;;;5004938;28;87991;-47
2024/01/17 06:29:19;;;;;;;;;;;0.50;87.50;;;;;;5005379;28;88259;-46
2024/01/17 06:31:45;;;;;;;;;;;0.50;87.50;;;;;;5006349;28;87074;-47
2024/01/17 06:34:10;;;;;;;;;;;0.50;87.60;;;;;;5006949;28;87108;-48
2024/01/17 06:36:36;;;;;;;;;;;0.50;87.60;;;;;;5005628;28;87439;-46
2024/01/17 06:39:01;;;;;;;;;;;0.50;87.50;;;;;;5004052;28;88496;-47
2024/01/17 06:41:27;;;;;;;;;;;0.50;87.60;;;;;;5006285;28;86947;-46
2024/01/17 06:43:52;;;;;;;;;;;0.50;87.60;;;;;;5009535;28;87318;-47
2024/01/17 06:46:18;;;;;;;;;;;0.50;87.70;;;;;;5003702;28;86673;-46
2024/01/17 06:48:44;;;;;;;;;;;0.40;87.60;;;;;;5005073;28;88587;-47
2024/01/17 06:51:10;;;;;;;;;;;0.50;87.60;;;;;;5006420;28;86907;-48
2024/01/17 06:53:36;;;;;;;;;;;0.50;87.50;;;;;;5000867;28;87943;-46
2024/01/17 06:56:01;;;;;;;;;;;0.50;87.60;;;;;;5005973;28;86967;-47
2024/01/17 06:58:27;;;;;;;;;;;0.40;87.70;;;;;;5005938;28;87027;-46
2024/01/17 07:00:53;;;;;;;;;;;0.40;87.70;;;;;;5005326;28;86936;-46
2024/01/17 07:03:19;;;;;;;;;;;0.50;87.60;;;;;;5001569;28;88573;-46
2024/01/17 07:05:45;;;;;;;;;;;0.50;87.70;;;;;;5008846;28;86967;-46
2024/01/17 07:08:10;;;;;;;;;;;0.50;87.60;;;;;;5005258;28;87462;-46
2024/01/17 07:10:36;;;;;;;;;;;0.40;87.60;;;;;;5006295;28;86151;-47
2024/01/17 07:13:02;;;;;;;;;;;0.40;87.60;;;;;;5006118;28;87093;-46
2024/01/17 07:15:27;;;;;;;;;;;0.40;87.70;;;;;;5005685;28;87387;-46
2024/01/17 07:17:53;;;;;;;;;;;0.40;87.70;;;;;;5004422;28;88036;-46
2024/01/17 07:20:19;;;;;;;;;;;0.40;88.50;;;;;;5006371;28;87492;-46
2024/01/17 07:22:44;;;;;;;;;;;0.40;87.80;;;;;;5005538;28;88839;-46
2024/01/17 07:25:10;;;;;;;;;;;0.40;87.80;;;;;;5002745;28;87058;-46
2024/01/17 07:27:40;;;;;;;;;;;0.40;87.90;;;;;;5008336;28;86888;-47
2024/01/17 07:30:06;;;;;;;;;;;0.40;87.80;;;;;;5005837;28;87026;-46
2024/01/17 07:32:31;;;;;;;;;;;0.40;87.90;;;;;;5004815;28;86787;-46
2024/01/17 07:34:57;;;;;;;;;;;0.40;87.90;;;;;;5005530;28;86230;-47
2024/01/17 07:37:22;;;;;;;;;;;0.40;88.00;;;;;;5006312;28;86913;-46
2024/01/17 07:39:48;;;;;;;;;;;0.40;88.00;;;;;;5008610;28;86954;-46
2024/01/17 07:42:14;;;;;;;;;;;0.40;87.90;;;;;;5004808;28;89559;-47
2024/01/17 07:44:40;;;;;;;;;;;0.40;88.00;;;;;;5009116;28;87113;-46
2024/01/17 07:47:05;;;;;;;;;;;0.40;88.10;;;;;;5011423;28;87033;-47
2024/01/17 07:49:35;;;;;;;;;;;0.40;88.10;;;;;;5009101;28;87052;-46
2024/01/17 07:52:01;;;;;;;;;;;0.40;88.20;;;;;;5008657;28;86918;-47
2024/01/17 07:54:26;;;;;;;;;;;0.40;88.30;;;;;;5008831;28;87396;-47
2024/01/17 07:56:52;;;;;;;;;;;0.40;88.30;;;;;;5008678;28;86837;-47
2024/01/17 07:59:18;;;;;;;;;;;0.40;88.20;;;;;;5009585;28;86737;-49
2024/01/17 08:01:43;;;;;;;;;;;0.40;88.10;;;;;;5008487;28;87542;-46
2024/01/17 08:04:09;;;;;;;;;;;0.40;88.20;;;;;;5008632;28;87031;-46
2024/01/17 08:06:35;;;;;;;;;;;0.40;88.10;;;;;;5008275;28;88008;-47
2024/01/17 08:09:02;;;;;;;;;;;0.40;88.00;;;;;;5010747;28;87942;-46
2024/01/17 08:11:28;;;;;;;;;;;0.30;88.10;;;;;;5006388;28;87883;-46
2024/01/17 08:13:54;;;;;;;;;;;0.30;88.10;;;;;;5007142;28;88446;-47
2024/01/17 08:16:20;;;;;;;;;;;0.40;88.10;;;;;;5008550;28;87007;-46
2024/01/17 08:18:46;;;;;;;;;;;0.30;88.10;;;;;;5008064;28;87814;-47
2024/01/17 08:21:12;;;;;;;;;;;0.30;88.10;;;;;;5008420;28;87368;-46
2024/01/17 08:23:38;;;;;;;;;;;0.30;88.10;;;;;;5008432;28;86351;-45
2024/01/17 08:26:04;;;;;;;;;;;0.30;88.00;;;;;;5007973;28;87164;-47
2024/01/17 08:28:29;;;;;;;;;;;0.30;88.20;;;;;;5008120;28;87452;-47
2024/01/17 08:30:55;;;;;;;;;;;0.30;88.20;;;;;;5010545;28;87976;-46
2024/01/17 08:33:20;;;;;;;;;;;0.30;88.20;;;;;;5007619;28;87491;-47
2024/01/17 08:35:47;;;;;;;;;;;0.30;88.10;;;;;;5008067;28;87072;-47
2024/01/17 08:38:13;;;;;;;;;;;0.30;88.10;;;;;;5007130;28;86982;-48
2024/01/17 08:40:39;;;;;;;;;;;0.30;88.30;;;;;;5006582;28;88527;-47
2024/01/17 08:43:04;;;;;;;;;;;0.30;88.30;;;;;;5007462;28;86997;-47
2024/01/17 08:45:30;;;;;;;;;;;0.30;88.20;;;;;;5007942;28;87816;-46
2024/01/17 08:47:55;;;;;;;;;;;0.30;88.80;;;;;;5005323;28;87788;-47
2024/01/17 08:50:21;;;;;;;;;;;0.30;88.20;;;;;;5006891;28;87040;-45
2024/01/17 08:52:48;;;;;;;;;;;0.30;88.30;;;;;;5010665;28;87989;-46
2024/01/17 08:55:13;;;;;;;;;;;0.30;88.30;;;;;;5006896;28;88415;-47
2024/01/17 08:57:39;;;;;;;;;;;0.30;88.30;;;;;;5008409;28;87674;-46
2024/01/17 09:00:06;;;;;;;;;;;0.30;88.30;;;;;;5006970;28;87410;-46
2024/01/17 09:02:31;;;;;;;;;;;0.30;88.30;;;;;;5006508;28;87059;-47
2024/01/17 09:04:57;;;;;;;;;;;0.30;88.30;;;;;;5008104;28;86751;-46
2024/01/17 09:07:23;;;;;;;;;;;0.40;88.30;;;;;;5007600;28;88636;-47
2024/01/17 09:09:49;;;;;;;;;;;0.30;88.30;;;;;;5007403;28;87080;-47
2024/01/17 09:12:17;;;;;;;;;;;0.30;88.30;;;;;;5007836;28;86645;-47
2024/01/17 09:14:43;;;;;;;;;;;0.30;88.30;;;;;;5010133;28;88508;-47
2024/01/17 09:17:09;;;;;;;;;;;0.30;88.30;;;;;;5007672;28;87798;-47
2024/01/17 09:19:34;;;;;;;;;;;0.40;88.30;;;;;;5006425;28;88305;-46
2024/01/17 09:22:00;;;;;;;;;;;0.30;88.30;;;;;;5007859;28;87000;-46
2024/01/17 09:24:26;;;;;;;;;;;0.40;88.40;;;;;;5003912;28;86987;-47
2024/01/17 09:26:52;;;;;;;;;;;0.40;88.30;;;;;;5006720;28;88429;-47
2024/01/17 09:29:18;;;;;;;;;;;0.40;88.40;;;;;;5007566;28;87037;-45
2024/01/17 09:31:43;;;;;;;;;;;0.30;88.30;;;;;;5006300;28;87235;-46
2024/01/17 09:34:09;;;;;;;;;;;0.30;88.40;;;;;;4997087;28;87388;-46
2024/01/17 09:36:34;;;;;;;;;;;0.40;88.30;;;;;;5010193;28;86849;-45
2024/01/17 09:39:00;;;;;;;;;;;0.40;88.40;;;;;;5006715;28;87574;-47
2024/01/17 09:41:26;;;;;;;;;;;0.40;88.50;;;;;;5007222;28;86998;-46
2024/01/17 09:43:52;;;;;;;;;;;0.40;88.40;;;;;;5006929;28;88440;-45
2024/01/17 09:46:18;;;;;;;;;;;0.40;88.40;;;;;;5003363;28;87540;-47
2024/01/17 09:48:44;;;;;;;;;;;0.40;88.30;;;;;;5004697;28;87014;-46
2024/01/17 09:51:15;;;;;;;;;;;0.40;88.40;;;;;;5004933;28;87025;-45
2024/01/17 09:53:43;;;;;;;;;;;0.40;88.30;;;;;;5006263;28;87601;-48
2024/01/17 09:56:09;;;;;;;;;;;0.40;88.60;;;;;;5009312;28;86949;-46
2024/01/17 09:58:35;;;;;;;;;;;0.40;88.30;;;;;;5006848;28;86853;-46
2024/01/17 10:01:05;;;;;;;;;;;0.50;88.70;;;;;;5006360;28;86294;-47
2024/01/17 10:03:34;;;;;;;;;;;0.40;88.40;;;;;;5004304;28;87024;-47
2024/01/17 10:06:00;;;;;;;;;;;0.40;88.80;;;;;;5005619;28;88708;-46
2024/01/17 10:08:26;;;;;;;;;;;0.40;88.80;;;;;;5000632;28;88890;-46
2024/01/17 10:10:52;;;;;;;;;;;0.50;88.60;;;;;;5005383;28;87635;-47
2024/01/17 10:13:17;;;;;;;;;;;0.40;88.60;;;;;;5006718;28;87394;-46
2024/01/17 10:15:44;;;;;;;;;;;0.40;88.80;;;;;;5007035;28;86921;-46
2024/01/17 10:18:10;;;;;;;;;;;0.40;88.90;;;;;;5009582;28;86883;-45
2024/01/17 10:20:36;;;;;;;;;;;0.30;89.00;;;;;;5005639;28;87148;-46
2024/01/17 10:23:03;;;;;;;;;;;0.40;89.20;;;;;;5006736;28;86850;-46
2024/01/17 10:25:39;;;;;;;;;;;0.30;89.40;;;;;;5006850;28;86648;-47
2024/01/17 10:28:04;;;;;;;;;;;0.40;89.00;;;;;;4999900;28;87075;-46
2024/01/17 10:30:30;;;;;;;;;;;0.50;88.90;;;;;;5006967;28;86917;-46
2024/01/17 10:32:56;;;;;;;;;;;0.60;88.80;;;;;;5005603;28;88407;-46
2024/01/17 10:35:23;;;;;;;;;;;0.60;88.70;;;;;;5005948;28;87043;-46
2024/01/17 10:37:52;;;;;;;;;;;0.50;88.40;;;;;;5006348;28;87993;-45
2024/01/17 10:40:18;;;;;;;;;;;0.50;88.70;;;;;;5008941;28;88525;-46
2024/01/17 10:42:44;;;;;;;;;;;0.60;88.80;;;;;;5006738;28;86827;-46
2024/01/17 10:45:32;;;;;;;;;;;0.50;89.00;;;;;;5005890;28;87363;-46
2024/01/17 10:47:58;;;;;;;;;;;0.50;89.40;;;;;;5005241;28;87311;-46
2024/01/17 10:50:23;;;;;;;;;;;0.50;89.50;;;;;;5002348;28;86756;-45
2024/01/17 10:52:50;;;;;;;;;;;0.60;89.50;;;;;;5005123;28;88116;-45
2024/01/17 10:55:17;;;;;;;;;;;0.60;89.40;;;;;;5004688;28;87076;-47
2024/01/17 10:57:47;;;;;;;;;;;0.60;89.40;;;;;;5002208;28;87968;-46
2024/01/17 11:00:16;;;;;;;;;;;0.60;89.30;;;;;;5006117;28;88363;-46
2024/01/17 11:02:42;;;;;;;;;;;0.60;90.00;;;;;;5009083;28;86948;-46
2024/01/17 11:05:13;;;;;;;;;;;0.50;89.80;;;;;;5002896;28;87401;-48
2024/01/17 11:07:39;;;;;;;;;;;0.50;90.00;;;;;;5004776;28;86998;-47
2024/01/17 11:10:07;;;;;;;;;;;0.60;90.00;;;;;;5006013;28;87454;-46
2024/01/17 11:12:33;;;;;;;;;;;0.60;90.10;;;;;;5006779;28;87489;-45
2024/01/17 11:14:59;;;;;;;;;;;0.60;90.20;;;;;;5009924;28;86302;-46
2024/01/17 11:17:26;;;;;;;;;;;0.50;90.20;;;;;;5009839;28;86983;-46
2024/01/17 11:19:52;;;;;;;;;;;0.50;90.30;;;;;;5006248;28;87507;-46
2024/01/17 11:22:17;;;;;;;;;;;0.60;90.30;;;;;;5008210;28;87950;-46
2024/01/17 11:24:58;;;;;;;;;;;0.60;90.10;;;;;;5011990;28;89101;-45
2024/01/17 11:27:32;;;;;;;;;;;0.60;90.20;;;;;;5007984;28;87436;-46
2024/01/17 11:30:21;;;;;;;;;;;0.60;90.30;;;;;;5004630;28;87152;-47
2024/01/17 11:32:55;;;;;;;;;;;0.60;90.40;;;;;;4998202;28;88465;-46
2024/01/17 11:35:39;;;;;;;;;;;0.70;90.30;;;;;;5007769;28;87018;-47
2024/01/17 11:38:06;;;;;;;;;;;0.60;90.20;;;;;;5006571;28;87035;-47
2024/01/17 11:40:32;;;;;;;;;;;0.60;90.50;;;;;;5009358;28;87786;-46
2024/01/17 11:42:57;;;;;;;;;;;0.70;90.20;;;;;;5007253;28;87088;-48
2024/01/17 11:45:23;;;;;;;;;;;0.70;90.40;;;;;;5007063;28;86981;-46
2024/01/17 11:47:52;;;;;;;;;;;0.70;90.50;;;;;;5011099;28;88448;-47
2024/01/17 11:50:20;;;;;;;;;;;0.70;90.50;;;;;;5004749;28;87845;-47
2024/01/17 11:52:45;;;;;;;;;;;0.70;90.40;;;;;;5008188;28;87687;-47
2024/01/17 11:55:11;;;;;;;;;;;0.70;90.40;;;;;;5008354;28;87016;-46
2024/01/17 11:57:37;;;;;;;;;;;0.80;90.50;;;;;;5009268;28;86891;-46
2024/01/17 12:00:11;;;;;;;;;;;0.80;90.50;;;;;;5008045;28;88558;-46
2024/01/17 12:02:37;;;;;;;;;;;0.80;90.50;;;;;;5008883;28;86980;-47
2024/01/17 12:05:04;;;;;;;;;;;0.80;90.50;;;;;;5007775;28;86775;-47
2024/01/17 12:07:30;;;;;;;;;;;0.80;90.70;;;;;;5009373;28;87752;-46
2024/01/17 12:09:56;;;;;;;;;;;0.80;90.70;;;;;;5007684;28;87798;-47
2024/01/17 12:12:22;;;;;;;;;;;0.90;90.70;;;;;;5007763;28;88340;-48
2024/01/17 12:14:48;;;;;;;;;;;0.80;90.80;;;;;;5008982;28;87070;-47
2024/01/17 12:17:14;;;;;;;;;;;0.80;90.80;;;;;;5008715;28;87834;-47
2024/01/17 12:19:39;;;;;;;;;;;0.80;90.90;;;;;;5008532;28;87446;-47
2024/01/17 12:22:05;;;;;;;;;;;0.90;90.90;;;;;;5007808;28;87062;-47
2024/01/17 12:24:30;;;;;;;;;;;0.90;91.00;;;;;;5003322;28;87057;-46
2024/01/17 12:26:56;;;;;;;;;;;0.90;90.90;;;;;;5008443;28;87533;-47
2024/01/17 12:29:22;;;;;;;;;;;0.90;90.90;;;;;;5012172;28;86243;-46
2024/01/17 12:31:47;;;;;;;;;;;0.80;91.00;;;;;;5007247;28;87918;-46
2024/01/17 12:34:13;;;;;;;;;;;0.90;91.10;;;;;;5008244;28;86968;-47
2024/01/17 12:36:38;;;;;;;;;;;0.90;91.10;;;;;;5003395;28;87971;-46
2024/01/17 12:39:13;;;;;;;;;;;0.90;91.30;;;;;;5005151;28;86990;-46
2024/01/17 12:41:39;;;;;;;;;;;0.90;91.20;;;;;;5006005;28;86963;-47
2024/01/17 12:44:05;;;;;;;;;;;0.90;91.10;;;;;;5007739;28;87818;-47
2024/01/17 12:46:32;;;;;;;;;;;0.90;91.20;;;;;;5008005;28;87514;-47
2024/01/17 12:48:59;;;;;;;;;;;0.90;91.20;;;;;;5008074;28;87050;-46
2024/01/17 12:51:25;;;;;;;;;;;0.90;91.20;;;;;;5009974;28;87810;-47
2024/01/17 12:53:53;;;;;;;;;;;1.00;91.30;;;;;;5008890;28;86138;-48
2024/01/17 12:56:18;;;;;;;;;;;1.00;91.30;;;;;;5006820;28;86856;-48
2024/01/17 12:58:44;;;;;;;;;;;0.90;91.30;;;;;;5007564;28;88546;-48
2024/01/17 13:01:11;;;;;;;;;;;1.00;91.30;;;;;;5007662;28;87840;-46
2024/01/17 13:03:38;;;;;;;;;;;1.00;91.40;;;;;;5008358;28;87620;-46
2024/01/17 13:06:06;;;;;;;;;;;1.00;91.40;;;;;;5005368;28;88809;-47
2024/01/17 13:08:32;;;;;;;;;;;1.00;91.40;;;;;;5007120;28;86895;-48
2024/01/17 13:10:58;;;;;;;;;;;1.00;91.50;;;;;;5008054;28;87880;-48
2024/01/17 13:13:24;;;;;;;;;;;1.00;91.50;;;;;;5010263;28;88670;-47
2024/01/17 13:15:54;;;;;;;;;;;1.00;91.60;;;;;;5007995;28;86965;-47
2024/01/17 13:18:21;;;;;;;;;;;1.00;91.50;;;;;;5007832;28;86876;-47
2024/01/17 13:20:46;;;;;;;;;;;1.10;91.60;;;;;;5008032;28;87080;-47
2024/01/17 13:23:12;;;;;;;;;;;1.10;91.60;;;;;;5006644;28;86938;-48
2024/01/17 13:25:38;;;;;;;;;;;1.10;91.70;;;;;;5006881;28;88393;-49
2024/01/17 13:28:08;;;;;;;;;;;1.10;91.60;;;;;;5006550;28;87117;-46
2024/01/17 13:30:36;;;;;;;;;;;1.10;91.60;;;;;;5007604;28;88158;-47
2024/01/17 13:33:08;;;;;;;;;;;1.10;91.60;;;;;;5007296;28;87459;-47
2024/01/17 13:35:34;;;;;;;;;;;1.20;91.70;;;;;;5009801;28;86990;-48
2024/01/17 13:38:00;;;;;;;;;;;1.20;91.60;;;;;;5003772;28;87415;-48
2024/01/17 13:40:27;;;;;;;;;;;1.20;91.80;;;;;;5007408;28;87239;-48
2024/01/17 13:42:54;;;;;;;;;;;1.20;91.70;;;;;;5004136;28;86618;-47
2024/01/17 13:45:22;;;;;;;;;;;1.20;91.80;;;;;;5006832;28;88692;-47
2024/01/17 13:47:48;;;;;;;;;;;1.20;91.80;;;;;;5007434;28;87079;-49
2024/01/17 13:50:20;;;;;;;;;;;1.20;91.80;;;;;;5006732;28;87930;-48
2024/01/17 13:52:50;;;;;;;;;;;1.30;91.80;;;;;;5002935;28;88581;-47
2024/01/17 13:55:17;;;;;;;;;;;1.30;91.80;;;;;;5006405;28;88461;-47
2024/01/17 13:57:42;;;;;;;;;;;1.30;91.80;;;;;;5008385;28;87799;-49
2024/01/17 14:00:08;;;;;;;;;;;1.30;91.80;;;;;;5006239;28;87077;-47
2024/01/17 14:02:34;;;;;;;;;;;1.30;91.80;;;;;;5007395;28;87056;-48
2024/01/17 14:04:59;;;;;;;;;;;1.30;91.90;;;;;;5006485;28;87567;-49
2024/01/17 14:07:25;;;;;;;;;;;1.30;91.90;;;;;;5006403;28;86219;-47
2024/01/17 14:09:51;;;;;;;;;;;1.30;91.80;;;;;;5006791;28;87086;-47
2024/01/17 14:12:16;;;;;;;;;;;1.30;91.90;;;;;;5005909;28;88921;-48
2024/01/17 14:14:43;;;;;;;;;;;1.30;91.90;;;;;;5006203;28;87965;-46
2024/01/17 14:17:09;;;;;;;;;;;1.30;91.90;;;;;;5009526;28;87675;-47
2024/01/17 14:19:35;;;;;;;;;;;1.40;92.00;;;;;;5006795;28;87135;-47
2024/01/17 14:22:01;;;;;;;;;;;1.40;92.10;;;;;;5004374;28;86741;-47
2024/01/17 14:24:27;;;;;;;;;;;1.40;92.00;;;;;;5006525;28;88491;-49
2024/01/17 14:26:52;;;;;;;;;;;1.40;92.10;;;;;;5006621;28;87057;-47